createdAt,value
2018-12-10T00:00:32.576Z,0.61
2018-12-10T00:03:16.433Z,0.52
2018-12-10T00:05:51.444Z,0.43
2018-12-10T00:08:23.608Z,0.34
2018-12-10T00:10:55.849Z,0.31
2018-12-10T00:13:28.738Z,0.44
2018-12-10T00:16:00.955Z,0.37
2018-12-10T00:18:34.060Z,0.31
2018-12-10T00:21:07.298Z,0.02
2018-12-10T00:23:38.063Z,0.21
2018-12-10T00:26:14.898Z,0.17
2018-12-10T00:28:47.087Z,0.09
2018-12-10T00:31:23.231Z,0.21
2018-12-10T00:33:59.424Z,0.14
2018-12-10T00:36:36.023Z,0.19
2018-12-10T00:39:12.282Z,0.20
2018-12-10T00:41:44.629Z,0.14
2018-12-10T00:44:20.887Z,0.27
2018-12-10T00:46:53.278Z,0.20
2018-12-10T00:49:26.039Z,0.27
2018-12-10T00:51:58.704Z,0.22
2018-12-10T00:54:30.321Z,0.00
2018-12-10T00:57:02.914Z,0.07
2018-12-10T00:59:35.800Z,0.10
2018-12-10T01:02:08.051Z,0.12
2018-12-10T01:04:41.345Z,0.02
2018-12-10T01:07:14.068Z,0.19
2018-12-10T01:09:46.164Z,0.06
2018-12-10T01:12:17.340Z,0.29
2018-12-10T01:14:50.488Z,0.20
2018-12-10T01:17:23.601Z,0.22
2018-12-10T01:20:00.529Z,0.32
2018-12-10T01:22:32.815Z,0.26
2018-12-10T01:25:05.404Z,0.66
2018-12-10T01:27:38.439Z,0.62
2018-12-10T01:30:14.802Z,0.56
2018-12-10T01:32:47.442Z,0.60
2018-12-10T01:35:20.577Z,0.39
2018-12-10T01:37:53.386Z,0.39
2018-12-10T01:40:26.465Z,0.73
2018-12-10T01:42:56.924Z,0.49
2018-12-10T01:45:29.937Z,0.35
2018-12-10T01:48:02.963Z,0.71
2018-12-10T01:50:39.430Z,0.39
2018-12-10T01:53:10.139Z,0.61
2018-12-10T01:55:47.429Z,0.86
2018-12-10T01:58:20.584Z,0.39
2018-12-10T02:00:57.558Z,0.72
2018-12-10T02:03:34.717Z,0.42
2018-12-10T02:06:11.139Z,0.57
2018-12-10T02:08:44.267Z,0.36
2018-12-10T02:11:20.476Z,0.49
2018-12-10T02:13:52.632Z,0.33
2018-12-10T02:16:25.020Z,0.25
2018-12-10T02:18:57.485Z,0.54
2018-12-10T02:21:34.658Z,0.29
2018-12-10T02:24:06.819Z,0.23
2018-12-10T02:26:39.000Z,0.42
2018-12-10T02:29:15.239Z,0.78
2018-12-10T02:31:47.489Z,0.49
2018-12-10T02:34:20.814Z,0.29
2018-12-10T02:36:53.796Z,0.26
2018-12-10T02:39:26.791Z,0.23
2018-12-10T02:42:03.673Z,0.09
2018-12-10T02:44:40.108Z,0.08
2018-12-10T02:47:16.257Z,0.18
2018-12-10T02:49:48.417Z,0.18
2018-12-10T02:52:21.549Z,0.15
2018-12-10T02:54:54.406Z,0.26
2018-12-10T02:57:30.499Z,0.38
2018-12-10T03:00:06.745Z,0.68
2018-12-10T03:02:41.763Z,0.74
2018-12-10T03:05:13.852Z,0.89
2018-12-10T03:07:46.434Z,0.82
2018-12-10T03:10:18.696Z,0.57
2018-12-10T03:12:54.820Z,0.62
2018-12-10T03:22:56.971Z,0.27
2018-12-10T03:25:29.289Z,0.61
2018-12-10T03:28:02.035Z,0.71
2018-12-10T03:30:34.202Z,0.44
2018-12-10T03:33:06.207Z,0.90
2018-12-10T03:35:38.595Z,0.72
2018-12-10T03:38:11.560Z,0.47
2018-12-10T03:40:43.742Z,0.43
2018-12-10T03:43:13.975Z,0.69
2018-12-10T03:45:45.690Z,0.83
2018-12-10T03:48:21.773Z,0.75
2018-12-10T03:50:57.927Z,0.74
2018-12-10T03:53:30.243Z,0.74
2018-12-10T03:56:02.565Z,0.85
2018-12-10T03:58:34.858Z,0.76
2018-12-10T04:01:07.931Z,0.61
2018-12-10T04:03:38.376Z,0.51
2018-12-10T04:06:11.271Z,0.47
2018-12-10T04:08:47.445Z,0.62
2018-12-10T04:11:17.556Z,0.52
2018-12-10T04:13:47.674Z,0.42
2018-12-10T04:16:20.009Z,0.45
2018-12-10T04:18:52.387Z,0.19
2018-12-10T04:21:24.635Z,0.49
2018-12-10T04:24:00.942Z,0.56
2018-12-10T04:26:37.008Z,0.28
2018-12-10T04:29:13.356Z,0.28
2018-12-10T04:31:49.719Z,0.39
2018-12-10T04:34:21.717Z,0.25
2018-12-10T04:36:51.941Z,0.33
2018-12-10T04:39:24.977Z,0.59
2018-12-10T04:42:01.763Z,0.47
2018-12-10T04:44:32.362Z,0.54
2018-12-10T04:47:09.327Z,0.45
2018-12-10T04:49:45.299Z,0.47
2018-12-10T04:52:21.491Z,0.42
2018-12-10T04:54:57.821Z,0.44
2018-12-10T04:57:28.714Z,0.48
2018-12-10T05:00:01.128Z,0.55
2018-12-10T05:02:37.303Z,1.20
2018-12-10T05:05:13.404Z,1.02
2018-12-10T05:07:49.462Z,0.99
2018-12-10T05:10:21.995Z,0.96
2018-12-10T05:12:54.940Z,1.16
2018-12-10T05:15:27.137Z,1.04
2018-12-10T05:17:57.384Z,1.05
2018-12-10T05:20:34.303Z,0.88
2018-12-10T05:23:12.029Z,1.20
2018-12-10T05:25:44.617Z,1.17
2018-12-10T05:28:20.712Z,1.18
2018-12-10T05:30:53.056Z,1.13
2018-12-10T05:33:25.935Z,1.05
2018-12-10T05:35:58.023Z,0.91
2018-12-10T05:38:34.417Z,0.81
2018-12-10T05:41:06.633Z,0.77
2018-12-10T05:43:42.824Z,0.68
2018-12-10T05:46:19.096Z,0.55
2018-12-10T05:48:49.176Z,0.46
2018-12-10T05:51:25.369Z,0.51
2018-12-10T05:53:58.299Z,0.50
2018-12-10T05:56:30.535Z,0.55
2018-12-10T05:59:02.614Z,1.22
2018-12-10T06:01:35.952Z,0.87
2018-12-10T06:04:13.169Z,0.90
2018-12-10T06:06:43.571Z,1.20
2018-12-10T06:09:16.451Z,1.15
2018-12-10T06:11:48.822Z,1.07
2018-12-10T06:14:20.997Z,1.03
2018-12-10T06:16:57.111Z,1.39
2018-12-10T06:19:27.749Z,1.27
2018-12-10T06:22:00.560Z,1.10
2018-12-10T06:24:36.618Z,1.03
2018-12-10T06:27:09.826Z,0.90
2018-12-10T06:29:42.068Z,1.00
2018-12-10T06:32:18.439Z,1.00
2018-12-10T06:34:54.634Z,1.23
2018-12-10T06:37:37.567Z,1.60
2018-12-10T06:40:06.104Z,1.80
2018-12-10T06:42:42.450Z,1.61
2018-12-10T06:45:15.410Z,1.60
2018-12-10T06:47:45.658Z,1.43
2018-12-10T06:50:18.032Z,1.54
2018-12-10T06:52:54.317Z,1.53
2018-12-10T06:55:27.318Z,1.58
2018-12-10T06:57:59.358Z,1.82
2018-12-10T07:00:31.560Z,1.90
2018-12-10T07:03:03.927Z,1.90
2018-12-10T07:05:39.878Z,1.92
2018-12-10T07:08:10.197Z,1.81
2018-12-10T07:10:43.173Z,1.79
2018-12-10T07:13:19.287Z,1.79
2018-12-10T07:15:52.191Z,1.85
2018-12-10T07:18:24.437Z,1.83
2018-12-10T07:20:54.507Z,1.74
2018-12-10T07:23:26.817Z,1.69
2018-12-10T07:26:02.928Z,1.90
2018-12-10T07:28:39.043Z,1.88
2018-12-10T07:31:11.959Z,2.00
2018-12-10T07:33:43.200Z,1.95
2018-12-10T07:36:20.296Z,1.91
2018-12-10T07:38:52.570Z,1.74
2018-12-10T07:41:28.797Z,1.66
2018-12-10T07:44:00.790Z,1.88
2018-12-10T07:46:36.879Z,2.10
2018-12-10T07:49:09.760Z,2.13
2018-12-10T07:51:42.151Z,2.02
2018-12-10T07:54:19.590Z,2.00
2018-12-10T07:56:51.676Z,2.13
2018-12-10T07:59:22.005Z,2.21
2018-12-10T08:01:54.938Z,2.23
2018-12-10T08:04:30.975Z,2.35
2018-12-10T08:07:03.941Z,2.41
2018-12-10T08:09:40.179Z,2.33
2018-12-10T08:12:16.377Z,2.38
2018-12-10T08:14:48.552Z,2.54
2018-12-10T08:17:18.740Z,2.56
2018-12-10T08:19:51.342Z,2.61
2018-12-10T08:22:24.383Z,2.67
2018-12-10T08:24:57.212Z,2.68
2018-12-10T08:27:29.413Z,2.79
2018-12-10T08:30:06.303Z,2.76
2018-12-10T08:32:36.622Z,2.88
2018-12-10T08:35:12.828Z,2.96
2018-12-10T08:37:48.813Z,3.06
2018-12-10T08:40:21.145Z,3.15
2018-12-10T08:42:55.030Z,3.10
2018-12-10T08:45:27.228Z,3.20
2018-12-10T08:48:03.231Z,3.30
2018-12-10T08:50:39.451Z,3.39
2018-12-10T08:53:12.415Z,3.44
2018-12-10T08:55:44.763Z,3.50
2018-12-10T08:58:20.973Z,3.63
2018-12-10T09:00:53.200Z,3.67
2018-12-10T09:03:25.990Z,3.72
2018-12-10T09:05:58.364Z,3.85
2018-12-10T09:08:30.690Z,3.90
2018-12-10T09:11:02.820Z,4.11
2018-12-10T09:13:38.922Z,4.38
2018-12-10T09:16:09.269Z,4.43
2018-12-10T09:18:42.261Z,4.60
2018-12-10T09:21:14.335Z,5.01
2018-12-10T09:23:47.085Z,5.22
2018-12-10T09:26:23.255Z,5.49
2018-12-10T09:28:59.417Z,5.44
2018-12-10T09:31:31.668Z,5.56
2018-12-10T09:34:07.962Z,5.62
2018-12-10T09:36:44.123Z,5.59
2018-12-10T09:39:15.003Z,5.49
2018-12-10T09:41:45.048Z,5.73
2018-12-10T09:44:21.281Z,5.86
2018-12-10T09:46:58.757Z,5.95
2018-12-10T09:49:25.674Z,6.24
2018-12-10T09:51:58.164Z,6.65
2018-12-10T09:54:34.181Z,6.87
2018-12-10T09:57:07.869Z,7.14
2018-12-10T09:59:40.265Z,7.32
2018-12-10T10:02:16.317Z,7.41
2018-12-10T10:04:46.666Z,7.53
2018-12-10T10:07:18.992Z,7.86
2018-12-10T10:09:58.740Z,8.03
2018-12-10T10:12:32.664Z,8.37
2018-12-10T10:15:05.464Z,8.81
2018-12-10T10:17:42.387Z,8.75
2018-12-10T10:20:19.353Z,9.08
2018-12-10T10:22:51.517Z,8.88
2018-12-10T10:25:23.707Z,8.78
2018-12-10T10:27:59.951Z,8.87
2018-12-10T10:30:36.132Z,9.52
2018-12-10T10:33:09.182Z,9.69
2018-12-10T10:35:45.351Z,9.94
2018-12-10T10:38:18.354Z,10.19
2018-12-10T10:40:48.730Z,9.99
2018-12-10T10:43:19.747Z,10.17
2018-12-10T10:45:53.213Z,10.61
2018-12-10T10:48:25.430Z,10.75
2018-12-10T10:50:58.509Z,10.62
2018-12-10T10:53:31.517Z,10.66
2018-12-10T10:56:04.760Z,10.16
2018-12-10T10:58:37.627Z,10.42
2018-12-10T11:01:19.365Z,10.61
2018-12-10T11:03:52.337Z,10.90
2018-12-10T11:06:25.285Z,11.07
2018-12-10T11:08:58.211Z,11.00
2018-12-10T11:11:30.365Z,11.19
2018-12-10T11:14:06.690Z,11.15
2018-12-10T11:16:43.608Z,10.99
2018-12-10T11:19:15.964Z,11.12
2018-12-10T11:21:53.025Z,11.12
2018-12-10T11:24:29.214Z,11.35
2018-12-10T11:27:06.102Z,11.18
2018-12-10T11:29:39.081Z,11.16
2018-12-10T11:32:11.285Z,10.98
2018-12-10T11:34:49.447Z,10.79
2018-12-10T11:37:22.461Z,10.46
2018-12-10T11:39:52.876Z,10.24
2018-12-10T11:42:25.130Z,9.85
2018-12-10T11:44:57.479Z,9.89
2018-12-10T11:47:29.941Z,9.74
2018-12-10T11:50:02.130Z,9.20
2018-12-10T11:52:37.820Z,8.63
2018-12-10T11:55:09.076Z,8.33
2018-12-10T11:57:41.461Z,8.17
2018-12-10T12:00:29.638Z,7.66
2018-12-10T12:03:00.817Z,7.31
2018-12-10T12:05:34.023Z,6.94
2018-12-10T12:08:06.345Z,6.82
2018-12-10T12:10:43.369Z,7.28
2018-12-10T12:13:20.286Z,6.83
2018-12-10T12:15:53.214Z,6.39
2018-12-10T12:18:26.262Z,6.23
2018-12-10T12:20:58.598Z,6.47
2018-12-10T12:23:36.556Z,6.87
2018-12-10T12:26:10.233Z,6.70
2018-12-10T12:28:47.099Z,6.71
2018-12-10T12:31:23.850Z,6.85
2018-12-10T12:33:59.986Z,7.13
2018-12-10T12:36:32.938Z,7.24
2018-12-10T12:39:06.697Z,6.56
2018-12-10T12:41:40.315Z,6.85
2018-12-10T12:44:17.311Z,6.81
2018-12-10T12:46:53.647Z,6.55
2018-12-10T12:49:25.833Z,6.71
2018-12-10T12:51:58.316Z,6.93
2018-12-10T12:54:30.574Z,6.82
2018-12-10T12:57:03.533Z,7.04
2018-12-10T12:59:39.692Z,6.65
2018-12-10T13:02:11.742Z,6.37
2018-12-10T13:04:43.956Z,6.46
2018-12-10T13:07:16.372Z,6.53
2018-12-10T13:09:48.452Z,6.47
2018-12-10T13:12:20.552Z,6.45
2018-12-10T13:14:53.067Z,6.45
2018-12-10T13:17:25.824Z,6.42
2018-12-10T13:19:57.979Z,6.41
2018-12-10T13:22:28.879Z,6.43
2018-12-10T13:24:59.078Z,6.31
2018-12-10T13:27:35.248Z,6.42
2018-12-10T13:30:08.362Z,6.46
2018-12-10T13:32:41.241Z,6.34
2018-12-10T13:35:13.268Z,6.11
2018-12-10T13:37:46.005Z,6.10
2018-12-10T13:40:19.789Z,6.10
2018-12-10T13:42:49.967Z,5.98
2018-12-10T13:45:23.298Z,5.92
2018-12-10T13:47:56.109Z,5.96
2018-12-10T13:50:28.374Z,5.91
2018-12-10T13:52:59.394Z,6.18
2018-12-10T13:55:31.743Z,6.11
2018-12-10T13:58:07.927Z,6.08
2018-12-10T14:00:44.810Z,6.13
2018-12-10T14:03:15.276Z,6.14
2018-12-10T14:05:47.678Z,6.13
2018-12-10T14:08:21.357Z,6.08
2018-12-10T14:10:53.747Z,6.14
2018-12-10T14:13:25.894Z,6.25
2018-12-10T14:16:02.105Z,6.24
2018-12-10T14:18:34.357Z,6.19
2018-12-10T14:21:06.624Z,6.21
2018-12-10T14:23:38.725Z,6.10
2018-12-10T14:26:08.888Z,6.05
2018-12-10T14:28:41.147Z,6.06
2018-12-10T14:31:17.229Z,6.04
2018-12-10T14:33:50.295Z,5.86
2018-12-10T14:36:27.314Z,5.77
2018-12-10T14:38:59.668Z,5.89
2018-12-10T14:41:32.552Z,5.74
2018-12-10T14:44:05.520Z,5.68
2018-12-10T14:46:37.753Z,5.71
2018-12-10T14:49:15.144Z,5.64
2018-12-10T14:51:47.947Z,5.60
2018-12-10T14:54:20.046Z,5.51
2018-12-10T14:56:52.208Z,5.57
2018-12-10T14:59:28.313Z,5.44
2018-12-10T15:02:04.631Z,5.44
2018-12-10T15:04:40.696Z,5.43
2018-12-10T15:07:13.792Z,5.37
2018-12-10T15:09:49.975Z,5.33
2018-12-10T15:12:26.398Z,5.26
2018-12-10T15:14:59.353Z,5.28
2018-12-10T15:17:31.695Z,5.21
2018-12-10T15:20:07.880Z,5.22
2018-12-10T15:22:44.059Z,5.36
2018-12-10T15:25:16.217Z,5.27
2018-12-10T15:27:48.583Z,5.12
2018-12-10T15:30:20.686Z,5.14
2018-12-10T15:32:57.674Z,5.13
2018-12-10T15:35:31.046Z,5.04
2018-12-10T15:38:03.647Z,4.66
2018-12-10T15:40:37.769Z,4.64
2018-12-10T15:43:14.068Z,4.45
2018-12-10T15:45:46.403Z,4.28
2018-12-10T15:48:19.302Z,4.22
2018-12-10T15:50:52.944Z,4.04
2018-12-10T15:53:25.874Z,3.88
2018-12-10T15:56:02.055Z,3.82
2018-12-10T15:58:39.105Z,3.64
2018-12-10T16:01:14.789Z,3.39
2018-12-10T16:03:51.670Z,3.31
2018-12-10T16:06:24.421Z,3.21
2018-12-10T16:09:00.500Z,3.17
2018-12-10T16:11:30.753Z,3.08
2018-12-10T16:14:07.075Z,3.02
2018-12-10T16:16:39.464Z,2.95
2018-12-10T16:19:11.473Z,2.92
2018-12-10T16:21:47.697Z,2.86
2018-12-10T16:24:19.818Z,2.68
2018-12-10T16:26:55.979Z,2.44
2018-12-10T16:29:28.072Z,2.45
2018-12-10T16:32:01.066Z,2.38
2018-12-10T16:34:33.459Z,2.33
2018-12-10T16:37:06.447Z,2.17
2018-12-10T16:39:36.690Z,2.08
2018-12-10T16:42:12.858Z,2.08
2018-12-10T16:54:48.104Z,1.69
2018-12-10T16:57:24.141Z,1.80
2018-12-10T16:59:56.523Z,1.71
2018-12-10T17:02:29.301Z,1.98
2018-12-10T17:05:05.823Z,2.23
2018-12-10T17:07:41.952Z,2.38
2018-12-10T17:10:18.100Z,2.41
2018-12-10T17:12:54.202Z,2.29
2018-12-10T17:15:30.373Z,2.26
2018-12-10T17:18:02.480Z,2.41
2018-12-10T17:20:34.908Z,2.39
2018-12-10T17:23:07.886Z,2.39
2018-12-10T17:25:38.075Z,2.64
2018-12-10T17:28:14.379Z,2.72
2018-12-10T17:30:47.314Z,2.63
2018-12-10T17:33:19.361Z,2.64
2018-12-10T17:35:56.370Z,2.68
2018-12-10T17:38:29.397Z,2.71
2018-12-10T17:41:06.583Z,2.67
2018-12-10T17:43:37.033Z,2.83
2018-12-10T17:46:10.390Z,2.80
2018-12-10T17:48:41.251Z,2.80
2018-12-10T17:51:14.215Z,2.78
2018-12-10T17:58:46.551Z,2.76
2018-12-10T18:01:19.539Z,2.60
2018-12-10T18:03:56.881Z,2.54
2018-12-10T18:06:29.944Z,2.60
2018-12-10T18:09:07.498Z,2.73
2018-12-10T18:11:41.850Z,2.59
2018-12-10T18:14:14.904Z,2.45
2018-12-10T18:16:48.007Z,2.49
2018-12-10T18:19:21.506Z,2.60
2018-12-10T18:21:58.388Z,2.48
2018-12-10T18:24:31.490Z,2.38
2018-12-10T18:27:03.746Z,2.33
2018-12-10T18:29:39.889Z,2.24
2018-12-10T18:32:12.870Z,2.16
2018-12-10T18:34:49.640Z,1.94
2018-12-10T18:37:20.682Z,1.91
2018-12-10T18:39:57.770Z,2.20
2018-12-10T18:42:30.353Z,2.46
2018-12-10T18:45:02.907Z,2.17
2018-12-10T18:47:35.862Z,2.21
2018-12-10T18:50:12.075Z,2.27
2018-12-10T18:52:44.883Z,2.14
2018-12-10T18:55:15.253Z,2.27
2018-12-10T18:57:46.161Z,2.21
2018-12-10T19:00:18.358Z,2.21
2018-12-10T19:02:54.500Z,2.33
2018-12-10T19:05:30.755Z,2.35
2018-12-10T19:08:01.225Z,2.44
2018-12-10T19:10:34.049Z,2.53
2018-12-10T19:13:07.134Z,2.64
2018-12-10T19:15:40.074Z,2.70
2018-12-10T19:18:16.485Z,2.88
2018-12-10T19:20:49.393Z,2.97
2018-12-10T19:23:22.329Z,3.05
2018-12-10T19:25:53.286Z,3.07
2018-12-10T19:28:26.267Z,2.88
2018-12-10T19:30:59.353Z,2.72
2018-12-10T19:33:32.417Z,2.65
2018-12-10T19:36:05.447Z,2.58
2018-12-10T19:38:38.236Z,2.80
2018-12-10T19:41:15.490Z,2.91
2018-12-10T19:43:52.433Z,2.80
2018-12-10T19:46:23.528Z,2.96
2018-12-10T19:48:59.813Z,2.69
2018-12-10T19:51:35.993Z,2.44
2018-12-10T19:54:08.418Z,2.65
2018-12-10T19:56:41.453Z,2.47
2018-12-10T19:59:13.636Z,2.23
2018-12-10T20:01:44.726Z,2.17
2018-12-10T20:04:21.604Z,1.96
2018-12-10T20:06:59.355Z,2.06
2018-12-10T20:09:31.895Z,2.25
2018-12-10T20:12:04.271Z,1.98
2018-12-10T20:14:37.310Z,1.95
2018-12-10T20:17:15.124Z,2.21
2018-12-10T20:19:48.518Z,2.13
2018-12-10T20:22:21.586Z,1.92
2018-12-10T20:24:51.887Z,1.54
2018-12-10T20:27:22.921Z,1.45
2018-12-10T20:30:00.021Z,1.38
2018-12-10T20:32:30.346Z,1.28
2018-12-10T20:35:01.384Z,1.20
2018-12-10T20:37:34.558Z,1.10
2018-12-10T20:40:10.972Z,1.31
2018-12-10T20:42:42.037Z,1.37
2018-12-10T20:45:19.128Z,1.49
2018-12-10T20:47:52.336Z,1.43
2018-12-10T20:50:28.394Z,1.44
2018-12-10T20:53:02.176Z,1.26
2018-12-10T20:55:35.339Z,1.07
2018-12-10T20:58:07.427Z,0.94
2018-12-10T21:00:39.803Z,0.94
2018-12-10T21:03:17.186Z,0.98
2018-12-10T21:05:55.877Z,1.38
2018-12-10T21:08:28.178Z,1.39
2018-12-10T21:11:01.228Z,1.67
2018-12-10T21:13:37.567Z,1.31
2018-12-10T21:16:09.935Z,1.22
2018-12-10T21:18:43.178Z,1.44
2018-12-10T21:21:16.054Z,1.39
2018-12-10T21:23:49.123Z,1.26
2018-12-10T21:26:25.346Z,1.19
2018-12-10T21:29:01.747Z,1.12
2018-12-10T21:31:38.137Z,1.12
2018-12-10T21:34:11.199Z,1.20
2018-12-10T21:36:44.199Z,1.02
2018-12-10T21:39:17.288Z,0.99
2018-12-10T21:41:50.373Z,0.97
2018-12-10T21:44:22.954Z,0.95
2018-12-10T21:46:55.943Z,0.79
2018-12-10T21:49:33.003Z,0.76
2018-12-10T21:52:09.264Z,0.80
2018-12-10T21:54:46.426Z,0.58
2018-12-10T21:57:19.327Z,0.51
2018-12-10T21:59:55.749Z,0.46
2018-12-10T22:02:32.060Z,0.46
2018-12-10T22:05:05.407Z,0.39
2018-12-10T22:07:38.275Z,0.40
2018-12-10T22:10:10.527Z,0.52
2018-12-10T22:12:46.764Z,0.56
2018-12-10T22:15:19.831Z,0.40
2018-12-10T22:17:52.546Z,0.33
2018-12-10T22:20:24.656Z,0.19
2018-12-10T22:22:57.049Z,0.21
2018-12-10T22:25:30.032Z,0.02
2018-12-10T22:28:03.007Z,-0.26
2018-12-10T22:30:37.163Z,-0.23
2018-12-10T22:33:10.842Z,-0.17
2018-12-10T22:35:42.184Z,-0.10
2018-12-10T22:38:15.141Z,-0.45
2018-12-10T22:40:48.986Z,-0.42
2018-12-10T22:43:23.191Z,-0.48
2018-12-10T22:46:00.367Z,-0.49
2018-12-10T22:48:31.458Z,-0.69
2018-12-10T22:51:02.450Z,-0.58
2018-12-10T22:53:38.712Z,-0.50
2018-12-10T22:56:15.671Z,-0.47
2018-12-10T22:58:51.821Z,-0.08
2018-12-10T23:01:28.029Z,-0.15
2018-12-10T23:04:00.257Z,-0.17
2018-12-10T23:11:33.733Z,-0.02
2018-12-10T23:14:06.625Z,-0.07
2018-12-10T23:16:39.623Z,-0.05
2018-12-10T23:19:11.795Z,0.12
2018-12-10T23:21:44.079Z,0.10
2018-12-10T23:24:16.884Z,0.31
2018-12-10T23:26:49.308Z,0.46
2018-12-10T23:29:25.522Z,0.45
2018-12-10T23:32:01.767Z,0.52
2018-12-10T23:34:33.889Z,0.56
2018-12-10T23:37:07.378Z,0.69
2018-12-10T23:39:40.408Z,0.77
2018-12-10T23:42:13.467Z,0.81
2018-12-10T23:44:51.148Z,0.87
2018-12-10T23:47:28.000Z,0.86
2018-12-10T23:50:05.241Z,0.77
2018-12-10T23:52:38.364Z,0.70
2018-12-10T23:55:08.383Z,0.72
2018-12-10T23:57:40.426Z,0.70
